createdAt,value
2023-03-04T00:01:34.576Z,5.17
2023-03-04T00:06:38.349Z,4.66
2023-03-04T00:11:41.428Z,4.30
2023-03-04T00:16:44.832Z,4.07
2023-03-04T00:21:48.092Z,3.92
2023-03-04T00:26:51.699Z,4.95
2023-03-04T00:31:55.081Z,8.32
2023-03-04T00:37:01.704Z,8.42
2023-03-04T00:42:05.424Z,6.62
2023-03-04T00:47:08.844Z,5.67
2023-03-04T00:52:12.104Z,5.09
2023-03-04T00:57:15.333Z,4.64
2023-03-04T01:02:19.381Z,4.31
2023-03-04T01:07:23.002Z,4.10
2023-03-04T01:12:26.114Z,3.89
2023-03-04T01:17:29.453Z,3.79
2023-03-04T01:22:33.049Z,3.65
2023-03-04T01:27:36.257Z,4.47
2023-03-04T01:32:39.554Z,7.96
2023-03-04T01:37:42.794Z,9.00
2023-03-04T01:42:46.424Z,7.21
2023-03-04T01:47:50.722Z,6.08
2023-03-04T01:52:54.118Z,5.39
2023-03-04T01:57:57.961Z,4.87
2023-03-04T02:03:11.628Z,4.47
2023-03-04T02:08:17.155Z,4.22
2023-03-04T02:13:20.457Z,4.05
2023-03-04T02:18:26.280Z,3.89
2023-03-04T02:23:38.602Z,3.81
2023-03-04T02:28:42.574Z,4.78
2023-03-04T02:33:45.873Z,8.16
2023-03-04T02:38:53.557Z,9.09
2023-03-04T02:43:57.366Z,7.29
2023-03-04T02:49:00.704Z,6.16
2023-03-04T02:54:05.344Z,5.42
2023-03-04T02:59:09.208Z,4.95
2023-03-04T03:04:13.149Z,4.57
2023-03-04T03:09:18.452Z,4.27
2023-03-04T03:14:21.858Z,4.08
2023-03-04T03:19:25.634Z,3.95
2023-03-04T03:24:29.299Z,4.97
2023-03-04T03:29:32.518Z,8.43
2023-03-04T03:34:35.890Z,8.32
2023-03-04T03:39:42.167Z,6.82
2023-03-04T03:44:45.700Z,5.92
2023-03-04T03:49:51.648Z,5.37
2023-03-04T03:54:54.820Z,5.01
2023-03-04T03:59:58.137Z,4.69
2023-03-04T04:05:01.423Z,4.50
2023-03-04T04:10:05.743Z,4.38
2023-03-04T04:15:12.193Z,4.18
2023-03-04T04:20:15.579Z,4.01
2023-03-04T04:25:18.695Z,3.89
2023-03-04T04:30:21.906Z,3.87
2023-03-04T04:35:25.175Z,3.87
2023-03-04T04:40:28.321Z,3.88
2023-03-04T04:45:31.825Z,3.86
2023-03-04T04:50:34.922Z,3.84
2023-03-04T04:55:38.167Z,3.82
2023-03-04T05:00:41.313Z,3.83
2023-03-04T05:05:44.459Z,3.74
2023-03-04T05:10:48.382Z,4.74
2023-03-04T05:15:53.612Z,8.21
2023-03-04T05:20:59.699Z,8.24
2023-03-04T05:26:05.231Z,6.60
2023-03-04T05:31:08.880Z,5.58
2023-03-04T05:36:12.250Z,4.98
2023-03-04T05:41:15.897Z,4.51
2023-03-04T05:46:25.792Z,4.18
2023-03-04T05:51:29.254Z,3.98
2023-03-04T05:56:33.775Z,3.87
2023-03-04T06:01:36.978Z,3.73
2023-03-04T06:06:40.356Z,3.68
2023-03-04T06:11:43.442Z,3.65
2023-03-04T06:16:46.836Z,3.65
2023-03-04T06:21:50.150Z,4.88
2023-03-04T06:26:53.573Z,8.32
2023-03-04T06:31:56.903Z,7.78
2023-03-04T06:37:00.416Z,6.49
2023-03-04T06:42:03.843Z,5.76
2023-03-04T06:47:08.426Z,5.27
2023-03-04T06:52:13.195Z,4.91
2023-03-04T06:57:16.581Z,4.60
2023-03-04T07:02:19.878Z,4.46
2023-03-04T07:07:23.944Z,4.33
2023-03-04T07:12:27.164Z,4.21
2023-03-04T07:17:30.634Z,4.05
2023-03-04T07:22:33.866Z,3.91
2023-03-04T07:27:38.813Z,3.82
2023-03-04T07:32:42.178Z,3.76
2023-03-04T07:37:45.392Z,3.72
2023-03-04T07:42:52.464Z,3.70
2023-03-04T07:47:55.853Z,3.72
2023-03-04T07:52:59.017Z,3.72
2023-03-04T07:58:03.374Z,3.74
2023-03-04T08:03:06.435Z,3.67
2023-03-04T08:08:09.714Z,3.61
2023-03-04T08:13:12.885Z,3.52
2023-03-04T08:18:16.227Z,3.46
2023-03-04T08:23:19.842Z,3.47
2023-03-04T08:28:23.316Z,3.49
2023-03-04T08:33:26.657Z,3.55
2023-03-04T08:38:29.973Z,3.64
2023-03-04T08:43:34.882Z,3.58
2023-03-04T08:48:39.101Z,3.49
2023-03-04T08:53:42.451Z,3.56
2023-03-04T08:58:45.837Z,3.58
2023-03-04T09:03:49.225Z,3.52
2023-03-04T09:08:52.530Z,3.52
2023-03-04T09:13:55.786Z,3.51
2023-03-04T09:19:00.692Z,3.59
2023-03-04T09:24:04.628Z,3.64
2023-03-04T09:29:07.885Z,3.72
2023-03-04T09:34:11.174Z,3.73
2023-03-04T09:39:14.336Z,3.76
2023-03-04T09:44:28.959Z,3.83
2023-03-04T09:49:32.910Z,3.82
2023-03-04T09:55:05.318Z,3.83
2023-03-04T10:00:21.283Z,3.91
2023-03-04T10:05:27.888Z,3.93
2023-03-04T10:10:36.603Z,4.05
2023-03-04T10:15:44.965Z,4.01
2023-03-04T10:20:54.028Z,4.06
2023-03-04T10:26:00.697Z,4.10
2023-03-04T10:31:06.781Z,4.13
2023-03-04T10:36:31.112Z,4.12
2023-03-04T10:41:34.378Z,4.11
2023-03-04T10:46:45.960Z,4.16
2023-03-04T10:52:04.454Z,4.21
2023-03-04T10:57:23.622Z,4.24
2023-03-04T11:02:31.012Z,4.23
2023-03-04T11:07:54.624Z,4.20
2023-03-04T11:12:58.735Z,4.16
2023-03-04T11:18:06.211Z,4.09
2023-03-04T11:23:39.983Z,4.08
2023-03-04T11:28:52.101Z,4.05
2023-03-04T11:34:29.526Z,3.99
2023-03-04T11:39:41.988Z,3.99
2023-03-04T11:44:45.261Z,3.96
2023-03-04T11:50:10.196Z,3.95
2023-03-04T11:55:42.246Z,3.89
2023-03-04T12:01:06.979Z,6.17
2023-03-04T12:06:27.489Z,8.22
2023-03-04T12:11:40.537Z,6.55
2023-03-04T12:17:09.876Z,5.64
2023-03-04T12:22:31.816Z,5.05
2023-03-04T12:28:03.885Z,4.69
2023-03-04T12:33:25.169Z,4.45
2023-03-04T12:38:31.068Z,4.20
2023-03-04T12:43:52.442Z,4.10
2023-03-04T12:49:03.222Z,4.07
2023-03-04T12:54:12.199Z,4.00
2023-03-04T12:59:21.352Z,3.94
2023-03-04T13:04:38.040Z,5.06
2023-03-04T13:10:04.868Z,8.75
2023-03-04T13:15:08.220Z,9.47
2023-03-04T13:20:18.071Z,7.71
2023-03-04T13:25:44.402Z,6.61
2023-03-04T13:30:57.277Z,5.86
2023-03-04T13:36:05.580Z,5.38
2023-03-04T13:41:20.753Z,5.03
2023-03-04T13:46:24.923Z,4.77
2023-03-04T13:51:42.029Z,4.61
2023-03-04T13:57:10.217Z,4.51
2023-03-04T14:02:19.193Z,4.51
2023-03-04T14:07:29.714Z,4.54
2023-03-04T14:12:36.603Z,4.58
2023-03-04T14:17:42.031Z,4.66
2023-03-04T14:22:45.545Z,4.64
2023-03-04T14:27:49.488Z,4.62
2023-03-04T14:32:54.978Z,4.66
2023-03-04T14:38:18.628Z,4.67
2023-03-04T14:43:23.372Z,4.58
2023-03-04T14:48:32.668Z,4.59
2023-03-04T14:53:36.020Z,4.68
2023-03-04T14:58:55.325Z,4.72
2023-03-04T15:04:12.824Z,6.03
2023-03-04T15:09:21.417Z,9.63
2023-03-04T15:14:46.358Z,9.90
2023-03-04T15:19:59.501Z,8.12
2023-03-04T15:26:07.192Z,7.10
2023-03-04T15:31:21.587Z,6.36
2023-03-04T15:44:03.590Z,5.52
2023-03-04T15:49:06.807Z,5.36
2023-03-04T15:54:14.276Z,5.26
2023-03-04T15:59:17.927Z,5.23
2023-03-04T16:04:21.673Z,5.24
2023-03-04T16:09:25.184Z,5.21
2023-03-04T16:14:32.795Z,5.17
2023-03-04T16:19:36.496Z,5.19
2023-03-04T16:24:40.017Z,5.23
2023-03-04T16:29:43.223Z,5.24
2023-03-04T16:34:46.747Z,5.26
2023-03-04T16:39:51.141Z,5.29
2023-03-04T16:44:55.561Z,5.28
2023-03-04T16:49:59.045Z,5.26
2023-03-04T16:55:05.002Z,5.27
2023-03-04T17:00:10.735Z,5.26
2023-03-04T17:05:19.270Z,5.27
2023-03-04T17:10:23.970Z,5.30
2023-03-04T17:15:27.316Z,5.31
2023-03-04T17:20:30.656Z,5.32
2023-03-04T17:25:34.245Z,5.32
2023-03-04T17:30:38.349Z,5.32
2023-03-04T17:35:41.511Z,5.27
2023-03-04T17:40:45.185Z,5.24
2023-03-04T17:45:48.972Z,5.23
2023-03-04T17:50:53.016Z,5.20
2023-03-04T17:56:00.292Z,5.19
2023-03-04T18:01:15.317Z,5.21
2023-03-04T18:06:19.706Z,5.18
2023-03-04T18:11:25.305Z,5.18
2023-03-04T18:16:29.227Z,5.17
2023-03-04T18:21:32.839Z,5.20
2023-03-04T18:26:36.283Z,5.20
2023-03-04T18:31:39.913Z,5.18
2023-03-04T18:36:43.432Z,5.15
2023-03-04T18:41:46.809Z,5.15
2023-03-04T18:46:56.538Z,5.18
2023-03-04T18:51:59.803Z,5.17
2023-03-04T18:57:09.730Z,5.19
2023-03-04T19:02:54.356Z,5.17
2023-03-04T19:07:57.632Z,5.16
2023-03-04T19:13:01.046Z,5.15
2023-03-04T19:18:05.740Z,5.18
2023-03-04T19:23:10.370Z,5.23
2023-03-04T19:28:13.943Z,5.25
2023-03-04T19:33:17.182Z,5.27
2023-03-04T19:38:20.293Z,5.28
2023-03-04T19:43:23.508Z,5.30
2023-03-04T19:48:26.824Z,5.37
2023-03-04T19:53:30.150Z,5.39
2023-03-04T19:58:34.005Z,5.43
2023-03-04T20:03:37.293Z,5.41
2023-03-04T20:08:40.715Z,5.45
2023-03-04T20:13:44.049Z,5.55
2023-03-04T20:18:47.332Z,5.60
2023-03-04T20:23:51.112Z,5.61
2023-03-04T20:28:54.811Z,5.65
2023-03-04T20:33:59.968Z,5.72
2023-03-04T20:39:10.264Z,5.73
2023-03-04T20:44:21.882Z,5.71
2023-03-04T20:49:27.964Z,5.64
2023-03-04T20:54:31.303Z,5.53
2023-03-04T20:59:35.699Z,5.48
2023-03-04T21:04:39.334Z,5.44
2023-03-04T21:09:44.101Z,5.39
2023-03-04T21:14:47.520Z,5.39
2023-03-04T21:19:50.672Z,5.43
2023-03-04T21:24:54.139Z,5.45
2023-03-04T21:29:58.382Z,5.44
2023-03-04T21:35:01.902Z,5.40
2023-03-04T21:40:05.821Z,5.38
2023-03-04T21:45:10.952Z,5.35
2023-03-04T21:50:14.743Z,5.34
2023-03-04T21:55:18.136Z,5.36
2023-03-04T22:00:21.936Z,5.38
2023-03-04T22:05:25.379Z,5.37
2023-03-04T22:10:29.224Z,5.34
2023-03-04T22:15:33.002Z,5.32
2023-03-04T22:20:39.514Z,5.32
2023-03-04T22:25:42.924Z,5.33
2023-03-04T22:30:46.480Z,5.32
2023-03-04T22:35:50.492Z,5.32
2023-03-04T22:40:53.713Z,5.32
2023-03-04T22:46:00.369Z,5.32
2023-03-04T22:51:08.789Z,5.36
2023-03-04T22:56:13.423Z,5.41
2023-03-04T23:01:17.980Z,5.43
2023-03-04T23:06:27.982Z,5.46
2023-03-04T23:11:35.623Z,5.45
2023-03-04T23:16:43.542Z,5.42
2023-03-04T23:21:46.868Z,5.42
2023-03-04T23:26:52.568Z,5.41
2023-03-04T23:31:55.941Z,5.40
2023-03-04T23:36:59.145Z,5.37
2023-03-04T23:42:02.496Z,5.36
2023-03-04T23:47:06.162Z,5.36
2023-03-04T23:52:10.117Z,5.34
2023-03-04T23:57:13.411Z,5.33
